createdAt,value
2019-05-12T00:00:39.063Z,48.81
2019-05-12T00:03:11.293Z,48.85
2019-05-12T00:05:43.988Z,48.89
2019-05-12T00:08:18.706Z,48.94
2019-05-12T00:10:50.533Z,48.95
2019-05-12T00:13:22.934Z,48.94
2019-05-12T00:15:55.632Z,48.83
2019-05-12T00:18:28.561Z,48.75
2019-05-12T00:21:01.115Z,48.71
2019-05-12T00:23:38.107Z,48.66
2019-05-12T00:26:10.308Z,48.58
2019-05-12T00:32:34.487Z,48.43
2019-05-12T00:35:07.803Z,48.44
2019-05-12T00:37:40.208Z,48.42
2019-05-12T00:40:12.405Z,48.34
2019-05-12T00:42:44.630Z,48.34
2019-05-12T00:45:18.115Z,48.30
2019-05-12T00:47:50.281Z,48.24
2019-05-12T00:50:22.508Z,48.19
2019-05-12T00:52:54.749Z,48.17
2019-05-12T00:55:28.889Z,48.15
2019-05-12T00:58:00.928Z,48.11
2019-05-12T01:00:33.158Z,48.09
2019-05-12T01:03:05.316Z,48.07
2019-05-12T01:05:38.438Z,48.04
2019-05-12T01:08:10.886Z,48.05
2019-05-12T01:10:43.065Z,48.00
2019-05-12T01:13:15.658Z,47.99
2019-05-12T01:15:48.983Z,47.97
2019-05-12T01:18:24.354Z,47.93
2019-05-12T01:20:58.305Z,47.92
2019-05-12T01:23:30.399Z,47.92
2019-05-12T01:26:02.438Z,47.93
2019-05-12T01:28:34.648Z,47.91
2019-05-12T01:31:08.663Z,47.88
2019-05-12T01:33:40.985Z,47.88
2019-05-12T01:36:13.203Z,47.86
2019-05-12T01:38:45.469Z,47.84
2019-05-12T01:41:38.907Z,47.83
2019-05-12T01:44:11.272Z,47.87
2019-05-12T01:46:43.412Z,47.93
2019-05-12T01:49:15.830Z,47.93
2019-05-12T01:51:48.066Z,47.95
2019-05-12T01:54:20.299Z,47.95
2019-05-12T01:56:52.590Z,47.95
2019-05-12T01:59:24.751Z,47.96
2019-05-12T02:01:58.114Z,47.97
2019-05-12T02:04:32.792Z,47.97
2019-05-12T02:07:08.356Z,47.96
2019-05-12T02:09:40.493Z,47.98
2019-05-12T02:12:12.676Z,47.99
2019-05-12T02:14:45.272Z,48.00
2019-05-12T02:17:17.978Z,47.98
2019-05-12T02:19:50.303Z,47.98
2019-05-12T02:22:22.413Z,48.00
2019-05-12T02:24:54.735Z,48.02
2019-05-12T02:27:28.385Z,48.05
2019-05-12T02:30:00.658Z,48.08
2019-05-12T02:32:47.234Z,48.14
2019-05-12T02:35:07.117Z,48.16
2019-05-12T02:37:39.271Z,48.15
2019-05-12T02:40:15.181Z,48.10
2019-05-12T02:42:46.785Z,48.10
2019-05-12T02:45:19.413Z,48.07
2019-05-12T02:47:54.184Z,48.03
2019-05-12T02:50:38.313Z,48.01
2019-05-12T02:53:14.197Z,47.98
2019-05-12T02:55:45.994Z,47.99
2019-05-12T02:58:20.518Z,47.95
2019-05-12T03:00:54.821Z,47.96
2019-05-12T03:03:29.771Z,47.95
2019-05-12T03:06:05.625Z,47.93
2019-05-12T03:08:39.599Z,47.96
2019-05-12T03:11:14.836Z,47.93
2019-05-12T03:13:46.582Z,47.96
2019-05-12T03:16:18.783Z,47.99
2019-05-12T03:18:51.204Z,47.98
2019-05-12T03:21:24.478Z,47.95
2019-05-12T03:23:56.926Z,47.93
2019-05-12T03:26:29.181Z,47.93
2019-05-12T03:29:01.158Z,47.95
2019-05-12T03:31:38.752Z,47.98
2019-05-12T03:34:10.019Z,48.01
2019-05-12T03:36:43.341Z,48.03
2019-05-12T03:39:15.418Z,48.04
2019-05-12T03:41:48.702Z,48.05
2019-05-12T03:44:21.007Z,48.00
2019-05-12T03:46:54.316Z,47.99
2019-05-12T03:49:26.652Z,47.96
2019-05-12T03:51:58.863Z,47.95
2019-05-12T03:54:31.229Z,47.91
2019-05-12T03:57:04.510Z,47.91
2019-05-12T03:59:36.735Z,47.92
2019-05-12T04:02:09.058Z,47.88
2019-05-12T04:04:41.336Z,47.87
2019-05-12T04:07:15.338Z,47.86
2019-05-12T04:09:47.508Z,47.83
2019-05-12T04:12:19.703Z,47.80
2019-05-12T04:14:54.838Z,47.81
2019-05-12T04:17:25.785Z,47.81
2019-05-12T04:19:57.845Z,47.80
2019-05-12T04:22:30.020Z,47.79
2019-05-12T04:25:06.194Z,47.81
2019-05-12T04:27:37.710Z,47.80
2019-05-12T04:30:10.509Z,47.83
2019-05-12T04:32:45.192Z,47.81
2019-05-12T04:35:16.534Z,47.83
2019-05-12T04:37:48.720Z,47.84
2019-05-12T04:40:20.993Z,47.84
2019-05-12T04:42:54.797Z,47.84
2019-05-12T04:45:27.126Z,47.86
2019-05-12T04:47:59.505Z,47.87
2019-05-12T04:50:34.881Z,47.89
2019-05-12T04:53:06.536Z,47.88
2019-05-12T04:55:39.219Z,47.56
2019-05-12T04:58:15.185Z,47.16
2019-05-12T05:00:45.425Z,46.77
2019-05-12T05:03:17.614Z,46.36
2019-05-12T05:05:49.786Z,45.94
2019-05-12T05:08:24.335Z,45.52
2019-05-12T05:10:56.315Z,45.18
2019-05-12T05:13:28.698Z,44.84
2019-05-12T05:16:00.927Z,44.56
2019-05-12T05:18:34.434Z,44.27
2019-05-12T05:21:06.906Z,44.08
2019-05-12T05:23:39.187Z,43.82
2019-05-12T05:26:23.907Z,43.59
2019-05-12T05:28:45.867Z,43.37
2019-05-12T05:31:18.320Z,43.10
2019-05-12T05:33:50.579Z,42.86
2019-05-12T05:36:24.979Z,42.65
2019-05-12T05:39:01.602Z,42.49
2019-05-12T05:41:30.838Z,42.29
2019-05-12T05:44:03.227Z,42.06
2019-05-12T05:46:38.973Z,41.84
2019-05-12T05:49:09.244Z,41.58
2019-05-12T05:51:48.303Z,41.45
2019-05-12T05:54:15.779Z,41.27
2019-05-12T05:56:57.753Z,41.12
2019-05-12T05:59:31.250Z,40.99
2019-05-12T06:01:57.463Z,40.97
2019-05-12T06:04:29.603Z,40.86
2019-05-12T06:07:04.189Z,40.85
2019-05-12T06:09:36.464Z,40.75
2019-05-12T06:12:10.033Z,40.70
2019-05-12T06:14:46.751Z,40.73
2019-05-12T06:17:16.650Z,40.69
2019-05-12T06:19:48.911Z,40.54
2019-05-12T06:22:23.428Z,40.63
2019-05-12T06:24:58.859Z,40.85
2019-05-12T06:27:32.544Z,40.99
2019-05-12T06:30:06.190Z,41.04
2019-05-12T06:32:41.131Z,41.05
2019-05-12T06:35:11.071Z,41.16
2019-05-12T06:37:44.354Z,41.17
2019-05-12T06:40:17.155Z,41.10
2019-05-12T06:42:54.166Z,41.24
2019-05-12T06:45:23.546Z,41.08
2019-05-12T06:47:56.203Z,40.92
2019-05-12T06:50:33.075Z,40.96
2019-05-12T06:53:04.693Z,41.02
2019-05-12T06:55:39.131Z,41.19
2019-05-12T06:58:10.417Z,41.35
2019-05-12T07:00:43.739Z,41.42
2019-05-12T07:03:19.440Z,41.68
2019-05-12T07:05:50.294Z,41.96
2019-05-12T07:08:27.439Z,42.17
2019-05-12T07:11:01.836Z,42.35
2019-05-12T07:13:31.221Z,42.48
2019-05-12T07:16:23.117Z,42.60
2019-05-12T07:18:50.898Z,42.73
2019-05-12T07:21:26.597Z,42.77
2019-05-12T07:24:03.821Z,42.82
2019-05-12T07:26:33.877Z,42.83
2019-05-12T07:29:05.855Z,42.82
2019-05-12T07:31:38.119Z,42.77
2019-05-12T07:34:10.285Z,42.74
2019-05-12T07:36:44.451Z,42.66
2019-05-12T07:39:18.256Z,42.54
2019-05-12T07:41:54.845Z,42.54
2019-05-12T07:44:32.141Z,42.58
2019-05-12T07:47:03.617Z,42.60
2019-05-12T07:49:38.587Z,42.51
2019-05-12T07:52:09.891Z,42.45
2019-05-12T07:54:44.273Z,42.31
2019-05-12T07:57:17.542Z,42.16
2019-05-12T07:59:49.938Z,42.04
2019-05-12T08:02:23.270Z,41.91
2019-05-12T08:04:56.064Z,41.91
2019-05-12T08:07:30.018Z,41.97
2019-05-12T08:10:07.336Z,41.97
2019-05-12T08:12:36.418Z,41.82
2019-05-12T08:15:09.814Z,41.78
2019-05-12T08:17:44.087Z,41.82
2019-05-12T08:20:16.297Z,41.89
2019-05-12T08:22:48.715Z,41.90
2019-05-12T08:25:24.807Z,42.00
2019-05-12T08:28:10.128Z,42.13
2019-05-12T08:30:45.365Z,42.23
2019-05-12T08:33:11.209Z,42.37
2019-05-12T08:35:43.837Z,42.48
2019-05-12T08:38:16.216Z,42.48
2019-05-12T08:40:50.859Z,42.51
2019-05-12T08:43:24.115Z,42.61
2019-05-12T08:46:00.215Z,42.73
2019-05-12T08:48:34.150Z,42.85
2019-05-12T08:51:14.851Z,42.97
2019-05-12T08:53:40.001Z,43.07
2019-05-12T08:56:14.448Z,42.97
2019-05-12T08:58:51.029Z,42.97
2019-05-12T09:01:25.192Z,42.96
2019-05-12T09:03:54.012Z,42.91
2019-05-12T09:06:26.551Z,42.91
2019-05-12T09:08:58.737Z,42.85
2019-05-12T09:11:31.037Z,42.81
2019-05-12T09:14:05.749Z,42.73
2019-05-12T09:16:37.834Z,42.68
2019-05-12T09:19:16.725Z,42.67
2019-05-12T09:21:45.411Z,42.67
2019-05-12T09:24:25.407Z,42.71
2019-05-12T09:26:59.044Z,42.65
2019-05-12T09:29:34.111Z,42.63
2019-05-12T09:32:09.477Z,42.74
2019-05-12T09:34:46.905Z,42.82
2019-05-12T09:37:14.303Z,42.91
2019-05-12T09:39:47.779Z,42.91
2019-05-12T09:42:25.613Z,42.82
2019-05-12T09:44:59.963Z,42.67
2019-05-12T09:47:30.213Z,42.57
2019-05-12T09:50:04.340Z,42.61
2019-05-12T09:52:36.357Z,42.58
2019-05-12T09:55:08.827Z,42.38
2019-05-12T09:57:43.002Z,42.18
2019-05-12T10:00:15.109Z,42.26
2019-05-12T10:02:51.182Z,42.20
2019-05-12T10:05:21.169Z,42.10
2019-05-12T10:07:53.681Z,42.07
2019-05-12T10:10:29.049Z,42.15
2019-05-12T10:13:01.318Z,42.15
2019-05-12T10:15:33.864Z,41.89
2019-05-12T10:18:10.851Z,41.84
2019-05-12T10:20:40.102Z,41.81
2019-05-12T10:23:18.210Z,41.82
2019-05-12T10:25:46.245Z,41.90
2019-05-12T10:28:18.325Z,41.96
2019-05-12T10:30:55.285Z,41.83
2019-05-12T10:33:24.676Z,41.79
2019-05-12T10:35:59.451Z,41.71
2019-05-12T10:38:31.253Z,41.58
2019-05-12T10:41:04.272Z,41.42
2019-05-12T10:43:36.779Z,41.44
2019-05-12T10:46:09.370Z,41.31
2019-05-12T10:48:44.177Z,41.35
2019-05-12T10:51:15.938Z,41.29
2019-05-12T10:53:54.853Z,40.96
2019-05-12T10:56:24.133Z,40.77
2019-05-12T10:58:56.459Z,40.73
2019-05-12T11:01:29.099Z,40.54
2019-05-12T11:04:04.263Z,40.29
2019-05-12T11:06:39.719Z,40.27
2019-05-12T11:09:11.049Z,40.23
2019-05-12T11:11:46.792Z,40.28
2019-05-12T11:14:20.256Z,40.18
2019-05-12T11:16:51.257Z,40.16
2019-05-12T11:19:23.549Z,39.91
2019-05-12T11:21:55.826Z,39.86
2019-05-12T11:24:33.526Z,39.78
2019-05-12T11:27:05.598Z,39.63
2019-05-12T11:29:46.215Z,39.49
2019-05-12T11:32:17.230Z,39.61
2019-05-12T11:34:47.850Z,39.33
2019-05-12T11:37:20.088Z,39.37
2019-05-12T11:39:53.579Z,39.36
2019-05-12T11:42:25.766Z,39.38
2019-05-12T11:44:58.129Z,39.12
2019-05-12T11:47:30.304Z,38.89
2019-05-12T11:50:05.027Z,38.79
2019-05-12T11:52:36.435Z,38.70
2019-05-12T11:55:08.902Z,38.62
2019-05-12T11:57:41.204Z,38.40
2019-05-12T12:00:16.270Z,38.19
2019-05-12T12:02:48.612Z,38.44
2019-05-12T12:05:23.361Z,38.43
2019-05-12T12:07:56.174Z,37.95
2019-05-12T12:10:34.138Z,37.86
2019-05-12T12:13:03.683Z,37.74
2019-05-12T12:15:36.033Z,37.60
2019-05-12T12:18:13.138Z,37.60
2019-05-12T12:20:44.238Z,37.61
2019-05-12T12:23:15.990Z,37.55
2019-05-12T12:25:49.040Z,37.29
2019-05-12T12:28:24.186Z,37.36
2019-05-12T12:31:00.287Z,37.30
2019-05-12T12:33:31.102Z,37.28
2019-05-12T12:36:04.191Z,37.32
2019-05-12T12:38:36.563Z,37.01
2019-05-12T12:41:08.742Z,36.88
2019-05-12T12:43:43.196Z,36.40
2019-05-12T12:46:27.994Z,36.32
2019-05-12T12:49:05.409Z,36.54
2019-05-12T12:51:34.351Z,36.56
2019-05-12T12:54:06.901Z,36.80
2019-05-12T12:56:39.495Z,36.87
2019-05-12T12:59:12.663Z,36.75
2019-05-12T13:01:45.761Z,36.89
2019-05-12T13:04:18.072Z,36.87
2019-05-12T13:06:50.310Z,36.60
2019-05-12T13:09:24.472Z,36.40
2019-05-12T13:11:56.395Z,36.21
2019-05-12T13:14:33.693Z,36.25
2019-05-12T13:17:04.228Z,36.31
2019-05-12T13:19:36.555Z,36.23
2019-05-12T13:22:09.196Z,35.67
2019-05-12T13:24:43.980Z,35.47
2019-05-12T13:27:19.208Z,35.54
2019-05-12T13:29:50.409Z,35.64
2019-05-12T13:32:31.557Z,35.67
2019-05-12T13:34:59.864Z,35.40
2019-05-12T13:37:33.763Z,35.40
2019-05-12T13:40:06.361Z,35.20
2019-05-12T13:42:38.588Z,34.94
2019-05-12T13:45:15.991Z,34.91
2019-05-12T13:47:45.621Z,34.96
2019-05-12T13:50:21.427Z,34.77
2019-05-12T13:52:54.051Z,34.72
2019-05-12T13:55:28.256Z,34.62
2019-05-12T13:58:03.991Z,34.69
2019-05-12T14:00:35.975Z,34.76
2019-05-12T14:03:09.800Z,34.76
2019-05-12T14:05:50.306Z,34.58
2019-05-12T14:08:16.750Z,34.47
2019-05-12T14:10:53.666Z,34.39
2019-05-12T14:13:24.561Z,34.28
2019-05-12T14:15:57.073Z,34.30
2019-05-12T14:18:29.300Z,34.46
2019-05-12T14:21:04.044Z,34.31
2019-05-12T14:23:36.170Z,34.33
2019-05-12T14:26:09.427Z,34.33
2019-05-12T14:28:45.529Z,34.15
2019-05-12T14:31:26.381Z,33.94
2019-05-12T14:33:50.431Z,33.88
2019-05-12T14:36:26.482Z,33.66
2019-05-12T14:39:00.376Z,33.72
2019-05-12T14:41:31.208Z,33.42
2019-05-12T14:44:04.016Z,33.57
2019-05-12T14:46:40.149Z,33.59
2019-05-12T14:49:10.303Z,33.66
2019-05-12T14:51:44.266Z,33.52
2019-05-12T14:54:16.401Z,33.49
2019-05-12T14:56:55.736Z,33.70
2019-05-12T14:59:24.330Z,33.69
2019-05-12T15:01:59.233Z,33.68
2019-05-12T15:04:30.501Z,33.86
2019-05-12T15:07:05.934Z,33.83
2019-05-12T15:09:36.731Z,33.99
2019-05-12T15:12:08.989Z,34.01
2019-05-12T15:14:43.667Z,34.16
2019-05-12T15:17:22.550Z,34.25
2019-05-12T15:19:49.677Z,34.26
2019-05-12T15:22:24.314Z,34.42
2019-05-12T15:24:58.896Z,34.47
2019-05-12T15:27:42.327Z,34.56
2019-05-12T15:30:20.219Z,34.67
2019-05-12T15:32:42.830Z,34.76
2019-05-12T15:35:18.324Z,34.84
2019-05-12T15:37:52.109Z,34.92
2019-05-12T15:40:23.790Z,35.02
2019-05-12T15:43:00.523Z,35.09
2019-05-12T15:45:30.009Z,35.20
2019-05-12T15:48:04.098Z,35.31
2019-05-12T15:50:44.992Z,35.37
2019-05-12T15:53:21.953Z,35.46
2019-05-12T15:55:50.067Z,35.58
2019-05-12T15:58:24.556Z,35.68
2019-05-12T16:00:58.159Z,35.77
2019-05-12T16:03:30.682Z,35.85
2019-05-12T16:06:10.242Z,35.98
2019-05-12T16:08:37.552Z,36.06
2019-05-12T16:11:10.147Z,36.16
2019-05-12T16:13:44.886Z,36.22
2019-05-12T16:16:16.724Z,36.33
2019-05-12T16:18:50.741Z,36.38
2019-05-12T16:21:23.461Z,36.46
2019-05-12T16:23:56.670Z,36.52
2019-05-12T16:26:29.460Z,36.58
2019-05-12T16:29:06.015Z,36.65
2019-05-12T16:31:39.491Z,36.70
2019-05-12T16:34:10.563Z,36.74
2019-05-12T16:36:50.254Z,36.77
2019-05-12T16:39:16.779Z,36.79
2019-05-12T16:41:49.024Z,36.86
2019-05-12T16:44:23.732Z,36.87
2019-05-12T16:46:55.167Z,36.92
2019-05-12T16:49:33.210Z,36.97
2019-05-12T16:52:03.775Z,37.00
2019-05-12T16:54:36.190Z,37.05
2019-05-12T16:57:17.305Z,37.08
2019-05-12T16:59:46.765Z,37.16
2019-05-12T17:02:19.224Z,37.22
2019-05-12T17:04:53.936Z,37.25
2019-05-12T17:07:27.198Z,37.36
2019-05-12T17:10:05.374Z,37.45
2019-05-12T17:12:37.075Z,37.48
2019-05-12T17:15:07.940Z,37.54
2019-05-12T17:17:40.314Z,37.58
2019-05-12T17:20:13.796Z,37.64
2019-05-12T17:22:54.552Z,37.68
2019-05-12T17:25:20.485Z,37.73
2019-05-12T17:27:53.194Z,37.75
2019-05-12T17:30:25.741Z,37.76
2019-05-12T17:33:01.907Z,37.79
2019-05-12T17:35:34.982Z,37.78
2019-05-12T17:38:05.661Z,37.78
2019-05-12T17:40:37.991Z,37.75
2019-05-12T17:43:11.950Z,37.73
2019-05-12T17:45:44.421Z,37.69
2019-05-12T17:48:16.645Z,37.67
2019-05-12T17:50:50.570Z,37.64
2019-05-12T17:53:24.081Z,37.61
2019-05-12T17:55:56.547Z,37.61
2019-05-12T17:58:34.951Z,37.59
2019-05-12T18:01:03.829Z,37.62
2019-05-12T18:03:39.331Z,37.59
2019-05-12T18:06:11.142Z,37.56
2019-05-12T18:08:44.310Z,37.53
2019-05-12T18:11:16.702Z,37.51
2019-05-12T18:13:49.234Z,37.51
2019-05-12T18:16:22.714Z,37.48
2019-05-12T18:18:55.471Z,37.47
2019-05-12T18:21:30.986Z,37.44
2019-05-12T18:24:06.759Z,37.44
2019-05-12T18:26:35.624Z,37.45
2019-05-12T18:29:07.796Z,37.42
2019-05-12T18:31:40.083Z,37.41
2019-05-12T18:34:13.899Z,37.42
2019-05-12T18:36:49.024Z,37.42
2019-05-12T18:39:20.341Z,37.40
2019-05-12T18:41:54.092Z,37.41
2019-05-12T18:44:31.193Z,37.40
2019-05-12T18:47:00.729Z,37.37
2019-05-12T18:49:34.272Z,37.36
2019-05-12T18:52:06.642Z,37.31
2019-05-12T18:54:43.089Z,37.30
2019-05-12T18:57:13.926Z,37.26
2019-05-12T18:59:54.175Z,37.26
2019-05-12T19:02:23.512Z,37.26
2019-05-12T19:04:54.371Z,37.22
2019-05-12T19:07:39.249Z,37.23
2019-05-12T19:10:00.866Z,37.24
2019-05-12T19:12:35.619Z,37.24
2019-05-12T19:15:10.299Z,37.27
2019-05-12T19:17:43.596Z,37.31
2019-05-12T19:20:19.806Z,37.31
2019-05-12T19:22:59.162Z,37.32
2019-05-12T19:25:30.109Z,37.31
2019-05-12T19:28:07.057Z,37.30
2019-05-12T19:30:36.737Z,37.25
2019-05-12T19:33:10.877Z,37.26
2019-05-12T19:35:43.907Z,37.21
2019-05-12T19:38:16.242Z,37.20
2019-05-12T19:40:55.125Z,37.23
2019-05-12T19:43:23.807Z,37.24
2019-05-12T19:46:03.195Z,37.25
2019-05-12T19:48:35.199Z,37.26
2019-05-12T19:51:19.975Z,37.26
2019-05-12T19:53:38.087Z,37.29
2019-05-12T19:56:14.063Z,37.32
2019-05-12T19:58:46.337Z,37.31
2019-05-12T20:01:26.137Z,37.34
2019-05-12T20:03:55.838Z,37.33
2019-05-12T20:06:26.458Z,37.35
2019-05-12T20:09:05.941Z,37.34
2019-05-12T20:11:32.572Z,37.36
2019-05-12T20:14:04.999Z,37.40
2019-05-12T20:16:37.673Z,37.44
2019-05-12T20:19:09.905Z,37.49
2019-05-12T20:21:43.837Z,37.54
2019-05-12T20:24:16.087Z,37.55
2019-05-12T20:26:48.411Z,37.59
2019-05-12T20:29:26.604Z,37.63
2019-05-12T20:31:54.530Z,37.66
2019-05-12T20:34:26.906Z,37.70
2019-05-12T20:37:04.031Z,37.74
2019-05-12T20:39:33.031Z,37.79
2019-05-12T20:42:05.405Z,37.85
2019-05-12T20:44:37.816Z,37.86
2019-05-12T20:47:11.077Z,37.91
2019-05-12T20:49:50.938Z,37.97
2019-05-12T20:52:17.459Z,38.03
2019-05-12T20:54:55.369Z,38.09
2019-05-12T20:57:23.748Z,38.14
2019-05-12T20:59:58.122Z,38.20
2019-05-12T21:02:29.908Z,38.24
2019-05-12T21:05:09.542Z,38.31
2019-05-12T21:07:36.212Z,38.41
2019-05-12T21:10:08.798Z,38.48
2019-05-12T21:12:46.406Z,38.55
2019-05-12T21:15:20.292Z,38.61
2019-05-12T21:17:58.316Z,38.69
2019-05-12T21:20:24.374Z,38.74
2019-05-12T21:22:56.771Z,38.80
2019-05-12T21:25:29.024Z,38.85
2019-05-12T21:28:03.059Z,38.90
2019-05-12T21:30:35.216Z,38.95
2019-05-12T21:33:07.509Z,38.98
2019-05-12T21:35:45.388Z,39.04
2019-05-12T21:38:13.641Z,39.07
2019-05-12T21:40:45.885Z,39.13
2019-05-12T21:43:18.398Z,39.13
2019-05-12T21:45:50.768Z,39.17
2019-05-12T21:48:24.258Z,39.22
2019-05-12T21:50:56.976Z,39.26
2019-05-12T21:53:29.551Z,39.33
2019-05-12T21:56:04.574Z,39.41
2019-05-12T21:58:45.342Z,39.43
2019-05-12T22:01:13.928Z,39.51
2019-05-12T22:03:58.001Z,39.55
2019-05-12T22:06:21.881Z,39.58
2019-05-12T22:09:01.099Z,39.66
2019-05-12T22:11:34.387Z,39.74
2019-05-12T22:14:05.761Z,39.81
2019-05-12T22:16:46.068Z,39.87
2019-05-12T22:19:13.567Z,39.93
2019-05-12T22:21:49.176Z,39.98
2019-05-12T22:24:27.510Z,40.01
2019-05-12T22:26:54.309Z,40.07
2019-05-12T22:29:31.219Z,40.10
2019-05-12T22:32:00.855Z,40.14
2019-05-12T22:34:37.022Z,40.21
2019-05-12T22:37:07.019Z,40.25
2019-05-12T22:39:39.274Z,40.30
2019-05-12T22:42:17.673Z,40.36
2019-05-12T22:44:45.520Z,40.38
2019-05-12T22:47:18.143Z,40.46
2019-05-12T22:49:52.093Z,40.49
2019-05-12T22:52:24.791Z,40.52
2019-05-12T22:54:57.716Z,40.60
2019-05-12T22:57:38.264Z,40.67
2019-05-12T23:00:04.305Z,40.74
2019-05-12T23:02:36.579Z,40.82
2019-05-12T23:05:10.297Z,40.89
2019-05-12T23:07:44.006Z,40.94
2019-05-12T23:10:16.362Z,40.99
2019-05-12T23:12:50.223Z,41.02
2019-05-12T23:15:24.308Z,41.06
2019-05-12T23:17:56.635Z,41.08
2019-05-12T23:20:31.000Z,41.10
2019-05-12T23:23:03.901Z,41.16
2019-05-12T23:25:36.953Z,41.20
2019-05-12T23:28:10.513Z,41.24
2019-05-12T23:30:48.401Z,41.27
2019-05-12T23:33:17.024Z,41.36
2019-05-12T23:35:49.522Z,41.36
2019-05-12T23:38:21.943Z,41.42
2019-05-12T23:40:54.238Z,41.45
2019-05-12T23:43:26.619Z,41.48
2019-05-12T23:45:58.838Z,41.47
2019-05-12T23:48:33.363Z,41.48
2019-05-12T23:51:05.128Z,41.54
2019-05-12T23:53:37.497Z,41.59
2019-05-12T23:56:09.674Z,41.65
2019-05-12T23:58:43.306Z,41.66
